createdAt,value
2019-05-10T00:01:29.540Z,100269.07
2019-05-10T00:04:02.629Z,100269.07
2019-05-10T00:06:35.652Z,100265.55
2019-05-10T00:09:08.835Z,100265.55
2019-05-10T00:11:41.909Z,100268.77
2019-05-10T00:14:15.026Z,100268.60
2019-05-10T00:16:47.954Z,100268.60
2019-05-10T00:19:21.533Z,100272.31
2019-05-10T00:21:54.678Z,100271.80
2019-05-10T00:24:27.711Z,100270.77
2019-05-10T00:27:00.766Z,100273.80
2019-05-10T00:29:33.768Z,100276.14
2019-05-10T00:32:06.844Z,100276.14
2019-05-10T00:34:40.075Z,100280.20
2019-05-10T00:37:13.214Z,100280.20
2019-05-10T00:39:46.257Z,100272.25
2019-05-10T00:42:19.281Z,100273.95
2019-05-10T00:44:52.280Z,100273.11
2019-05-10T00:47:25.514Z,100271.07
2019-05-10T00:49:58.945Z,100271.07
2019-05-10T00:52:32.168Z,100269.72
2019-05-10T00:55:17.841Z,100269.72
2019-05-10T00:57:40.453Z,100268.69
2019-05-10T01:00:14.051Z,100268.02
2019-05-10T01:02:47.051Z,100268.02
2019-05-10T01:05:20.880Z,100269.55
2019-05-10T01:07:53.836Z,100269.55
2019-05-10T01:10:26.805Z,100269.72
2019-05-10T01:12:59.815Z,100266.51
2019-05-10T01:15:32.839Z,100265.50
2019-05-10T01:18:05.919Z,100265.50
2019-05-10T01:20:39.253Z,100275.83
2019-05-10T01:23:12.179Z,100275.83
2019-05-10T01:25:45.250Z,100281.56
2019-05-10T01:28:18.153Z,100279.20
2019-05-10T01:30:51.216Z,100297.44
2019-05-10T01:33:24.612Z,100297.44
2019-05-10T01:35:58.039Z,100302.51
2019-05-10T01:38:30.974Z,100304.32
2019-05-10T01:41:04.104Z,100301.41
2019-05-10T01:43:37.113Z,100296.75
2019-05-10T01:46:10.292Z,100301.59
2019-05-10T01:48:43.197Z,100301.59
2019-05-10T01:51:16.229Z,100303.23
2019-05-10T01:53:49.408Z,100299.45
2019-05-10T01:56:22.860Z,100298.39
2019-05-10T01:58:55.888Z,100298.39
2019-05-10T02:01:28.827Z,100296.69
2019-05-10T02:04:01.911Z,100298.04
2019-05-10T02:06:34.877Z,100310.89
2019-05-10T02:09:08.085Z,100310.89
2019-05-10T02:11:41.036Z,100320.69
2019-05-10T02:14:14.024Z,100320.50
2019-05-10T02:16:47.021Z,100323.86
2019-05-10T02:19:20.362Z,100323.17
2019-05-10T02:21:53.617Z,100336.09
2019-05-10T02:24:26.505Z,100336.09
2019-05-10T02:26:59.879Z,100339.85
2019-05-10T02:29:33.123Z,100351.45
2019-05-10T02:32:06.190Z,100357.02
2019-05-10T02:34:39.178Z,100357.02
2019-05-10T02:37:12.145Z,100372.16
2019-05-10T02:39:45.455Z,100372.16
2019-05-10T02:42:18.793Z,100373.71
2019-05-10T02:44:51.865Z,100373.31
2019-05-10T02:47:24.975Z,100382.07
2019-05-10T02:49:59.397Z,100376.47
2019-05-10T02:52:33.074Z,100380.26
2019-05-10T02:55:06.161Z,100382.81
2019-05-10T02:57:40.192Z,100382.81
2019-05-10T03:00:13.659Z,100394.95
2019-05-10T03:02:47.067Z,100394.95
2019-05-10T03:05:20.131Z,100399.00
2019-05-10T03:07:57.247Z,100399.00
2019-05-10T03:10:33.251Z,100409.66
2019-05-10T03:13:07.825Z,100409.66
2019-05-10T03:15:43.876Z,100405.30
2019-05-10T03:18:19.783Z,100415.77
2019-05-10T03:20:55.988Z,100418.11
2019-05-10T03:23:29.448Z,100418.11
2019-05-10T03:26:02.307Z,100419.65
2019-05-10T03:28:35.264Z,100422.36
2019-05-10T03:31:08.457Z,100434.36
2019-05-10T03:33:41.883Z,100438.21
2019-05-10T03:36:15.125Z,100438.21
2019-05-10T03:38:48.580Z,100440.41
2019-05-10T03:41:22.581Z,100454.41
2019-05-10T03:43:55.565Z,100455.26
2019-05-10T03:46:28.496Z,100456.26
2019-05-10T03:49:01.542Z,100460.00
2019-05-10T03:51:34.868Z,100460.00
2019-05-10T03:54:07.946Z,100459.79
2019-05-10T03:56:41.158Z,100459.79
2019-05-10T03:59:14.176Z,100467.68
2019-05-10T04:01:47.092Z,100471.13
2019-05-10T04:04:20.047Z,100471.13
2019-05-10T04:06:53.039Z,100481.43
2019-05-10T04:09:26.197Z,100481.43
2019-05-10T04:11:59.099Z,100485.00
2019-05-10T04:14:32.087Z,100479.66
2019-05-10T04:17:04.982Z,100491.47
2019-05-10T04:19:37.977Z,100494.37
2019-05-10T04:22:10.907Z,100501.45
2019-05-10T04:24:44.187Z,100501.45
2019-05-10T04:27:31.259Z,100504.14
2019-05-10T04:29:52.565Z,100514.27
2019-05-10T04:32:25.670Z,100514.27
2019-05-10T04:34:58.663Z,100517.32
2019-05-10T04:37:31.574Z,100523.22
2019-05-10T04:40:05.221Z,100532.84
2019-05-10T04:42:38.218Z,100534.05
2019-05-10T04:45:11.713Z,100538.92
2019-05-10T04:47:45.108Z,100538.92
2019-05-10T04:50:18.226Z,100540.77
2019-05-10T04:52:51.528Z,100540.41
2019-05-10T04:55:24.742Z,100547.87
2019-05-10T04:57:57.858Z,100551.09
2019-05-10T05:00:31.142Z,100559.55
2019-05-10T05:03:04.154Z,100559.55
2019-05-10T05:05:37.174Z,100565.00
2019-05-10T05:08:10.184Z,100562.65
2019-05-10T05:10:43.524Z,100562.65
2019-05-10T05:13:16.442Z,100570.40
2019-05-10T05:15:49.424Z,100577.73
2019-05-10T05:18:22.416Z,100577.73
2019-05-10T05:20:55.369Z,100584.62
2019-05-10T05:23:28.621Z,100584.62
2019-05-10T05:26:02.125Z,100591.58
2019-05-10T05:28:35.038Z,100597.34
2019-05-10T05:31:08.080Z,100599.95
2019-05-10T05:33:41.265Z,100600.80
2019-05-10T05:36:14.232Z,100608.75
2019-05-10T05:38:49.542Z,100615.36
2019-05-10T05:41:21.841Z,100618.47
2019-05-10T05:43:54.749Z,100618.64
2019-05-10T05:46:27.840Z,100618.64
2019-05-10T05:49:00.946Z,100627.28
2019-05-10T05:51:33.957Z,100625.75
2019-05-10T05:54:06.949Z,100625.75
2019-05-10T05:56:44.699Z,100629.19
2019-05-10T05:59:17.330Z,100629.19
2019-05-10T06:01:49.628Z,100637.87
2019-05-10T06:04:22.579Z,100638.83
2019-05-10T06:06:59.125Z,100638.83
2019-05-10T06:09:31.916Z,100649.23
2019-05-10T06:12:07.473Z,100664.91
2019-05-10T06:14:43.158Z,100664.91
2019-05-10T06:17:14.560Z,100673.25
2019-05-10T06:19:47.530Z,100679.09
2019-05-10T06:22:20.631Z,100676.89
2019-05-10T06:24:53.973Z,100686.70
2019-05-10T06:27:27.162Z,100703.03
2019-05-10T06:30:00.659Z,100703.03
2019-05-10T06:32:33.645Z,100698.91
2019-05-10T06:35:07.200Z,100705.55
2019-05-10T06:37:40.231Z,100705.55
2019-05-10T06:40:13.823Z,100708.31
2019-05-10T06:42:46.946Z,100723.52
2019-05-10T06:45:22.091Z,100728.41
2019-05-10T06:47:55.183Z,100731.34
2019-05-10T06:50:29.875Z,100731.34
2019-05-10T06:53:07.741Z,100736.68
2019-05-10T06:55:37.613Z,100736.68
2019-05-10T06:58:10.636Z,100740.09
2019-05-10T07:00:47.292Z,100740.09
2019-05-10T07:03:18.948Z,100755.66
2019-05-10T07:05:51.937Z,100755.66
2019-05-10T07:08:27.067Z,100761.19
2019-05-10T07:11:00.109Z,100761.19
2019-05-10T07:13:33.168Z,100771.80
2019-05-10T07:16:06.089Z,100771.80
2019-05-10T07:18:39.021Z,100781.88
2019-05-10T07:21:12.034Z,100779.47
2019-05-10T07:23:47.597Z,100794.83
2019-05-10T07:26:23.941Z,100794.83
2019-05-10T07:28:57.448Z,100800.40
2019-05-10T07:31:30.169Z,100797.64
2019-05-10T07:34:03.317Z,100803.27
2019-05-10T07:36:36.323Z,100811.03
2019-05-10T07:39:10.778Z,100813.89
2019-05-10T07:41:44.357Z,100827.78
2019-05-10T07:44:18.077Z,100827.78
2019-05-10T07:46:54.338Z,100836.87
2019-05-10T07:49:30.388Z,100836.87
2019-05-10T07:52:02.672Z,100836.14
2019-05-10T07:54:37.390Z,100842.55
2019-05-10T07:57:09.900Z,100842.55
2019-05-10T07:59:50.642Z,100844.55
2019-05-10T08:02:17.656Z,100852.42
2019-05-10T08:04:53.521Z,100849.78
2019-05-10T08:07:25.233Z,100854.59
2019-05-10T08:09:59.429Z,100866.98
2019-05-10T08:12:35.276Z,100875.06
2019-05-10T08:15:08.558Z,100875.06
2019-05-10T08:17:45.510Z,100872.66
2019-05-10T08:20:30.654Z,100879.86
2019-05-10T08:22:52.631Z,100885.63
2019-05-10T08:25:29.335Z,100885.63
2019-05-10T08:28:04.256Z,100889.79
2019-05-10T08:30:51.381Z,100897.65
2019-05-10T08:33:15.850Z,100893.42
2019-05-10T08:35:58.088Z,100893.42
2019-05-10T08:38:24.186Z,100902.93
2019-05-10T08:40:57.194Z,100903.52
2019-05-10T08:43:38.665Z,100907.87
2019-05-10T08:46:04.932Z,100907.53
2019-05-10T08:48:43.443Z,100907.53
2019-05-10T08:51:13.124Z,100910.96
2019-05-10T08:53:47.205Z,100916.34
2019-05-10T08:56:24.004Z,100916.34
2019-05-10T08:58:55.914Z,100919.89
2019-05-10T09:01:30.607Z,100923.30
2019-05-10T09:04:06.734Z,100930.05
2019-05-10T09:06:38.962Z,100934.68
2019-05-10T09:09:12.529Z,100934.68
2019-05-10T09:11:45.721Z,100940.45
2019-05-10T09:14:20.333Z,100935.70
2019-05-10T09:17:00.791Z,100935.84
2019-05-10T09:19:37.472Z,100937.07
2019-05-10T09:22:03.317Z,100937.07
2019-05-10T09:24:43.230Z,100943.59
2019-05-10T09:27:12.869Z,100942.89
2019-05-10T09:29:45.650Z,100954.03
2019-05-10T09:32:23.449Z,100967.89
2019-05-10T09:34:54.391Z,100970.80
2019-05-10T09:37:27.486Z,100972.52
2019-05-10T09:40:05.427Z,100972.52
2019-05-10T09:42:40.063Z,100963.31
2019-05-10T09:45:10.536Z,100963.93
2019-05-10T09:47:44.692Z,100965.89
2019-05-10T09:50:17.996Z,100971.40
2019-05-10T09:52:50.915Z,100969.75
2019-05-10T09:55:23.843Z,100973.78
2019-05-10T09:57:58.318Z,100973.78
2019-05-10T10:00:33.138Z,100969.02
2019-05-10T10:03:08.303Z,100977.71
2019-05-10T10:05:41.921Z,100978.89
2019-05-10T10:08:14.899Z,100996.41
2019-05-10T10:10:47.876Z,100998.80
2019-05-10T10:13:36.917Z,101003.31
2019-05-10T10:15:57.988Z,101002.69
2019-05-10T10:18:30.759Z,101002.86
2019-05-10T10:21:03.810Z,101006.61
2019-05-10T10:23:37.807Z,101013.39
2019-05-10T10:26:12.651Z,101012.38
2019-05-10T10:28:49.707Z,101014.69
2019-05-10T10:31:29.551Z,101030.72
2019-05-10T10:34:02.615Z,101026.17
2019-05-10T10:36:30.720Z,101026.17
2019-05-10T10:39:07.422Z,101034.13
2019-05-10T10:41:39.894Z,101034.13
2019-05-10T10:44:12.806Z,101029.86
2019-05-10T10:46:47.766Z,101040.73
2019-05-10T10:49:23.092Z,101051.01
2019-05-10T10:51:57.201Z,101046.32
2019-05-10T10:54:36.509Z,101046.32
2019-05-10T10:57:05.132Z,101043.67
2019-05-10T10:59:38.385Z,101051.30
2019-05-10T11:04:46.550Z,101051.48
2019-05-10T11:07:20.499Z,101050.96
2019-05-10T11:10:04.678Z,101050.96
2019-05-10T11:12:27.932Z,101049.09
2019-05-10T11:15:01.247Z,101050.63
2019-05-10T11:17:34.254Z,101050.14
2019-05-10T11:20:09.274Z,101068.61
2019-05-10T11:22:49.617Z,101055.13
2019-05-10T11:25:16.828Z,101053.52
2019-05-10T11:27:56.420Z,101054.81
2019-05-10T11:30:26.714Z,101054.81
2019-05-10T11:33:00.550Z,101056.27
2019-05-10T11:35:34.685Z,101056.27
2019-05-10T11:38:12.948Z,101043.59
2019-05-10T11:40:42.651Z,101051.98
2019-05-10T11:43:17.395Z,101045.61
2019-05-10T11:45:51.460Z,101045.61
2019-05-10T11:48:28.963Z,101052.61
2019-05-10T11:50:59.952Z,101052.61
2019-05-10T11:53:32.866Z,101052.27
2019-05-10T11:56:07.768Z,101053.06
2019-05-10T11:58:45.982Z,101061.37
2019-05-10T12:03:51.797Z,101070.28
2019-05-10T12:06:24.717Z,101070.14
2019-05-10T12:09:02.087Z,101066.00
2019-05-10T12:11:34.111Z,101072.92
2019-05-10T12:14:07.273Z,101072.92
2019-05-10T12:16:41.972Z,101070.52
2019-05-10T12:21:55.512Z,101078.72
2019-05-10T12:24:39.000Z,101084.13
2019-05-10T12:26:03.777Z,101070.28
2019-05-10T12:26:27.772Z,101073.12
2019-05-10T12:27:17.282Z,101080.87
2019-05-10T12:29:34.198Z,101082.02
2019-05-10T12:32:07.073Z,101076.09
2019-05-10T12:34:41.008Z,101078.38
2019-05-10T12:37:14.162Z,101091.27
2019-05-10T12:39:47.075Z,101091.27
2019-05-10T12:42:21.828Z,101089.15
2019-05-10T12:44:55.936Z,101093.14
2019-05-10T12:47:30.973Z,101093.14
2019-05-10T12:50:03.845Z,101105.55
2019-05-10T12:52:37.073Z,101105.55
2019-05-10T12:55:10.331Z,101108.57
2019-05-10T12:57:43.751Z,101123.27
2019-05-10T13:00:16.978Z,101144.35
2019-05-10T13:02:51.879Z,101141.01
2019-05-10T13:05:31.722Z,101134.44
2019-05-10T13:07:59.700Z,101133.36
2019-05-10T13:10:37.375Z,101131.94
2019-05-10T13:13:07.142Z,101131.94
2019-05-10T13:15:39.974Z,101128.12
2019-05-10T13:18:12.862Z,101124.19
2019-05-10T13:20:45.778Z,101117.88
2019-05-10T13:23:18.690Z,101117.88
2019-05-10T13:25:51.521Z,101132.16
2019-05-10T13:28:24.420Z,101132.16
2019-05-10T13:30:59.954Z,101143.95
2019-05-10T13:33:40.927Z,101149.64
2019-05-10T13:36:06.592Z,101149.69
2019-05-10T13:38:43.865Z,101149.69
2019-05-10T13:41:17.922Z,101149.30
2019-05-10T13:43:49.003Z,101165.53
2019-05-10T13:46:21.807Z,101167.22
2019-05-10T13:48:54.689Z,101165.39
2019-05-10T13:51:27.535Z,101165.39
2019-05-10T13:54:00.914Z,101161.46
2019-05-10T13:56:35.008Z,101174.73
2019-05-10T13:59:15.640Z,101170.13
2019-05-10T14:01:44.240Z,101164.72
2019-05-10T14:04:17.633Z,101164.72
2019-05-10T14:06:50.480Z,101175.02
2019-05-10T14:09:23.401Z,101172.02
2019-05-10T14:11:56.227Z,101179.30
2019-05-10T14:14:29.162Z,101185.55
2019-05-10T14:17:01.988Z,101185.55
2019-05-10T14:19:36.336Z,101183.89
2019-05-10T14:22:09.341Z,101184.41
2019-05-10T14:24:46.638Z,101182.09
2019-05-10T14:27:17.120Z,101185.01
2019-05-10T14:29:49.983Z,101177.36
2019-05-10T14:32:22.820Z,101187.11
2019-05-10T14:34:55.732Z,101193.42
2019-05-10T14:37:28.711Z,101191.48
2019-05-10T14:40:01.697Z,101191.48
2019-05-10T14:42:34.521Z,101187.96
2019-05-10T14:45:08.928Z,101187.05
2019-05-10T14:47:48.448Z,101183.19
2019-05-10T14:50:19.569Z,101183.06
2019-05-10T14:52:51.784Z,101181.14
2019-05-10T14:55:32.143Z,101179.83
2019-05-10T14:57:59.591Z,101174.12
2019-05-10T15:00:32.465Z,101173.70
2019-05-10T15:03:05.362Z,101183.42
2019-05-10T15:05:38.468Z,101180.11
2019-05-10T15:08:11.293Z,101183.50
2019-05-10T15:10:44.193Z,101183.50
2019-05-10T15:13:19.521Z,101184.65
2019-05-10T15:15:51.621Z,101184.71
2019-05-10T15:18:24.452Z,101186.12
2019-05-10T15:20:57.553Z,101187.85
2019-05-10T15:23:30.483Z,101187.85
2019-05-10T15:26:10.123Z,101184.84
2019-05-10T15:28:40.202Z,101184.84
2019-05-10T15:31:13.072Z,101190.42
2019-05-10T15:33:46.161Z,101180.36
2019-05-10T15:36:23.536Z,101186.14
2019-05-10T15:38:53.595Z,101184.38
2019-05-10T15:41:27.393Z,101185.89
2019-05-10T15:44:00.218Z,101183.43
2019-05-10T15:46:38.774Z,101183.20
2019-05-10T15:49:08.077Z,101180.45
2019-05-10T15:51:41.018Z,101185.38
2019-05-10T15:54:13.838Z,101185.38
2019-05-10T15:56:46.760Z,101191.87
2019-05-10T15:59:21.334Z,101191.87
2019-05-10T16:01:54.170Z,101194.75
2019-05-10T16:04:27.072Z,101189.05
2019-05-10T16:07:00.029Z,101195.66
2019-05-10T16:09:32.876Z,101192.76
2019-05-10T16:12:08.763Z,101186.39
2019-05-10T16:14:41.630Z,101186.39
2019-05-10T16:17:17.020Z,101191.92
2019-05-10T16:19:55.926Z,101192.16
2019-05-10T16:22:30.430Z,101199.17
2019-05-10T16:25:02.478Z,101197.45
2019-05-10T16:27:40.421Z,101197.45
2019-05-10T16:30:12.135Z,101189.12
2019-05-10T17:23:13.160Z,101175.91
2019-05-10T17:25:46.048Z,101174.31
2019-05-10T17:28:19.163Z,101174.31
2019-05-10T17:30:52.176Z,101179.48
2019-05-10T17:33:25.021Z,101174.66
2019-05-10T17:36:07.989Z,101174.66
2019-05-10T17:38:33.073Z,101180.78
2019-05-10T17:41:06.054Z,101181.51
2019-05-10T17:43:39.919Z,101176.95
2019-05-10T17:46:18.527Z,101183.56
2019-05-10T17:48:49.547Z,101179.37
2019-05-10T17:51:22.731Z,101176.46
2019-05-10T17:54:01.421Z,101179.81
2019-05-10T17:56:32.841Z,101179.81
2019-05-10T17:59:11.671Z,101176.52
2019-05-10T18:01:40.591Z,101174.67
2019-05-10T18:04:13.523Z,101182.65
2019-05-10T18:06:46.506Z,101178.35
2019-05-10T18:09:19.393Z,101184.09
2019-05-10T18:11:52.303Z,101189.61
2019-05-10T18:14:25.261Z,101189.61
2019-05-10T18:16:58.332Z,101191.16
2019-05-10T18:19:31.289Z,101191.67
2019-05-10T18:22:06.400Z,101191.67
2019-05-10T18:24:42.264Z,101190.49
2019-05-10T18:27:13.956Z,101197.56
2019-05-10T18:29:46.849Z,101190.69
2019-05-10T18:32:19.833Z,101196.34
2019-05-10T18:34:52.973Z,101200.27
2019-05-10T18:37:26.014Z,101195.26
2019-05-10T18:39:59.101Z,101199.69
2019-05-10T18:42:32.527Z,101194.59
2019-05-10T18:45:06.340Z,101201.72
2019-05-10T18:47:39.388Z,101207.05
2019-05-10T18:50:12.713Z,101208.91
2019-05-10T18:52:45.713Z,101208.91
2019-05-10T18:55:18.704Z,101212.11
2019-05-10T18:57:52.609Z,101215.11
2019-05-10T19:00:26.209Z,101216.08
2019-05-10T19:02:59.208Z,101215.15
2019-05-10T19:05:33.190Z,101215.15
2019-05-10T19:08:06.635Z,101218.64
2019-05-10T19:10:39.773Z,101228.69
2019-05-10T19:13:13.404Z,101229.01
2019-05-10T19:15:52.933Z,101229.01
2019-05-10T19:18:23.103Z,101229.29
2019-05-10T19:20:56.193Z,101238.34
2019-05-10T19:23:29.410Z,101239.83
2019-05-10T19:26:02.313Z,101254.30
2019-05-10T19:28:35.501Z,101257.72
2019-05-10T19:31:08.400Z,101258.35
2019-05-10T19:33:41.332Z,101258.35
2019-05-10T19:36:14.781Z,101262.73
2019-05-10T19:38:47.746Z,101276.08
2019-05-10T19:41:25.533Z,101276.08
2019-05-10T19:44:01.886Z,101285.97
2019-05-10T19:46:38.843Z,101294.23
2019-05-10T19:49:07.527Z,101293.70
2019-05-10T19:51:47.576Z,101304.30
2019-05-10T19:54:19.476Z,101307.01
2019-05-10T19:56:49.297Z,101311.92
2019-05-10T19:59:22.530Z,101310.98
2019-05-10T20:01:55.551Z,101310.12
2019-05-10T20:04:29.160Z,101309.13
2019-05-10T20:07:02.114Z,101306.31
2019-05-10T20:09:35.089Z,101306.31
2019-05-10T20:12:08.146Z,101311.81
2019-05-10T20:14:41.025Z,101308.73
2019-05-10T20:17:14.839Z,101304.08
2019-05-10T20:19:47.837Z,101294.47
2019-05-10T20:22:20.720Z,101280.73
2019-05-10T20:24:54.400Z,101286.11
2019-05-10T20:27:27.370Z,101279.05
2019-05-10T20:30:00.635Z,101284.41
2019-05-10T20:32:33.633Z,101284.41
2019-05-10T20:35:07.311Z,101279.50
2019-05-10T20:37:40.349Z,101280.02
2019-05-10T20:40:13.990Z,101280.02
2019-05-10T20:42:46.874Z,101271.81
2019-05-10T20:45:19.913Z,101276.41
2019-05-10T20:47:52.936Z,101276.08
2019-05-10T20:50:26.000Z,101285.89
2019-05-10T20:52:58.892Z,101285.16
2019-05-10T20:55:32.014Z,101287.00
2019-05-10T20:58:05.006Z,101288.33
2019-05-10T21:00:38.376Z,101287.39
2019-05-10T21:03:11.263Z,101287.39
2019-05-10T21:05:44.187Z,101280.42
2019-05-10T21:08:17.579Z,101278.50
2019-05-10T21:10:50.839Z,101278.50
2019-05-10T21:13:23.743Z,101270.56
2019-05-10T21:15:57.224Z,101270.56
2019-05-10T21:18:30.252Z,101271.09
2019-05-10T21:21:03.315Z,101276.48
2019-05-10T21:23:36.214Z,101267.20
2019-05-10T21:26:09.194Z,101267.20
2019-05-10T21:28:42.243Z,101268.92
2019-05-10T21:31:15.259Z,101279.45
2019-05-10T21:33:48.883Z,101283.40
2019-05-10T21:36:24.663Z,101290.86
2019-05-10T21:38:56.448Z,101290.86
2019-05-10T21:41:29.407Z,101294.05
2019-05-10T21:44:02.404Z,101298.44
2019-05-10T21:46:35.821Z,101301.11
2019-05-10T21:49:10.940Z,101301.11
2019-05-10T21:51:43.873Z,101297.09
2019-05-10T21:54:16.771Z,101286.05
2019-05-10T21:56:49.711Z,101292.51
2019-05-10T21:59:22.741Z,101295.70
2019-05-10T22:01:56.104Z,101292.38
2019-05-10T22:04:28.986Z,101283.56
2019-05-10T22:07:02.335Z,101286.84
2019-05-10T22:09:35.220Z,101286.84
2019-05-10T22:12:08.341Z,101281.83
2019-05-10T22:14:41.328Z,101278.88
2019-05-10T22:17:14.355Z,101271.80
2019-05-10T22:19:47.308Z,101267.38
2019-05-10T22:22:20.273Z,101273.73
2019-05-10T22:24:53.177Z,101275.45
2019-05-10T22:27:26.203Z,101274.34
2019-05-10T22:29:59.071Z,101275.41
2019-05-10T22:32:32.288Z,101271.37
2019-05-10T22:35:06.231Z,101270.11
2019-05-10T22:37:39.270Z,101272.14
2019-05-10T22:40:12.427Z,101278.00
2019-05-10T22:42:45.744Z,101283.46
2019-05-10T22:45:18.778Z,101285.77
2019-05-10T22:47:51.717Z,101286.59
2019-05-10T22:50:24.811Z,101286.59
2019-05-10T22:52:58.041Z,101283.98
2019-05-10T22:55:30.963Z,101287.93
2019-05-10T22:58:04.077Z,101285.83
2019-05-10T23:00:36.960Z,101285.89
2019-05-10T23:03:09.939Z,101283.05
2019-05-10T23:05:42.852Z,101277.52
2019-05-10T23:08:15.987Z,101278.96
2019-05-10T23:10:48.917Z,101278.96
2019-05-10T23:13:21.989Z,101272.24
2019-05-10T23:15:54.892Z,101273.70
2019-05-10T23:18:27.975Z,101274.18
2019-05-10T23:21:00.941Z,101274.18
2019-05-10T23:23:33.915Z,101273.48
2019-05-10T23:26:07.202Z,101278.43
2019-05-10T23:28:40.223Z,101264.13
2019-05-10T23:31:13.183Z,101272.78
2019-05-10T23:33:46.203Z,101272.78
2019-05-10T23:36:19.159Z,101272.94
2019-05-10T23:38:52.410Z,101263.89
2019-05-10T23:41:25.278Z,101264.00
2019-05-10T23:43:58.222Z,101266.52
2019-05-10T23:46:31.099Z,101254.86
2019-05-10T23:49:04.305Z,101269.52
2019-05-10T23:51:37.891Z,101269.52
2019-05-10T23:54:10.912Z,101267.22
2019-05-10T23:56:43.978Z,101266.73
2019-05-10T23:59:17.102Z,101265.60
